Plain City, OH (43064)

11:52 PM EDT on August 30, 2016 (GMT -0400)
Santa Clara Circle | | Change Station

Elev 0 ft 40.15 °N, 83.25 °W | Updated 44 seconds ago

Clear
Clear
72.1 °F
Feels Like 72 °F
N
0.0
Wind Variable Wind from North
Gusts 0.6 mph

Today
High -- | Low -- °F
--% Chance of Precip.
Yesterday
High -- | Low -- °F
Precip. -- in
Pressure 30.09 in
Visibility 10.0 miles
Clouds Clear
Heat Index 72 °F
Dew Point 67 °F
Humidity 83%
Rainfall 0.00 in
Snow Depth Not available.
6:59 AM 8:07 PM
Waning Crescent, 2% visible
METAR KMRT 310333Z AUTO 00000KT 10SM CLR 21/20 A3009 RMK AO2 T02050196
Pressure 30.09 in
Visibility 10.0 miles
Clouds Clear
Heat Index 72 °F
Dew Point 67 °F
Humidity 83%
Rainfall 0.00 in
Snow Depth Not available.
6:59 AM 8:07 PM
Waning Crescent, 2% visible
METAR KMRT 310333Z AUTO 00000KT 10SM CLR 21/20 A3009 RMK AO2 T02050196

10-Day Weather Forecast

Almanac

Astronomy

Aug. 30, 2016 Rise Set
Actual Time
Civil Twilight
Nautical Twilight
Astronomical Twilight
Moon
Length of Visible Light
Length of Day
Tomorrow will be .
, % of the Moon is Illuminated

Today's Extremes

State Highs State Lows

Community

WunderPhotos

Upload Photos

1,936,021 photos uploaded!

WunderBlog® & News

Nearby

Air Quality

  Air Quality AQ Index Pollutant
Not available.

Snow Depth

Station Depth Elevation

Earthquake Activity

City Distance Mag. Time & Date
Minimum magnitude displayed is 2.5.

Coastal Water Temperatures

Place Temperature

Stations

Nearby Weather Stations

Station Location Temp. Windchill Dew Point Humidity Wind Precip. Elev Updated Type
                   

Watches & Warnings

There are currently no watches in effect.